createdAt,value
2023-02-06T00:01:26.137Z,101021.70
2023-02-06T00:03:52.988Z,101018.51
2023-02-06T00:06:19.962Z,101016.79
2023-02-06T00:08:47.496Z,101015.81
2023-02-06T00:11:16.121Z,101021.15
2023-02-06T00:13:44.756Z,101023.27
2023-02-06T00:16:32.510Z,101022.92
2023-02-06T00:19:01.204Z,101022.74
2023-02-06T00:21:28.578Z,101024.55
2023-02-06T00:23:56.753Z,101023.89
2023-02-06T00:26:24.081Z,101027.30
2023-02-06T00:28:51.031Z,101024.93
2023-02-06T00:31:18.011Z,101025.02
2023-02-06T00:33:44.998Z,101026.23
2023-02-06T00:36:11.698Z,101024.23
2023-02-06T00:38:38.775Z,101023.55
2023-02-06T00:41:06.074Z,101020.67
2023-02-06T00:43:33.084Z,101015.87
2023-02-06T00:45:59.793Z,101013.52
2023-02-06T00:48:27.001Z,101016.21
2023-02-06T00:50:54.039Z,101017.30
2023-02-06T00:53:20.921Z,101015.95
2023-02-06T00:55:47.903Z,101020.59
2023-02-06T00:58:14.645Z,101023.95
2023-02-06T01:00:43.579Z,101022.59
2023-02-06T01:03:10.677Z,101028.80
2023-02-06T01:05:37.946Z,101025.27
2023-02-06T01:08:05.147Z,101024.15
2023-02-06T01:10:32.122Z,101020.43
2023-02-06T01:13:00.076Z,101021.27
2023-02-06T01:15:31.642Z,101020.96
2023-02-06T01:18:00.523Z,101025.08
2023-02-06T01:20:27.868Z,101022.79
2023-02-06T01:22:54.498Z,101022.98
2023-02-06T01:25:21.450Z,101024.48
2023-02-06T01:27:48.847Z,101024.64
2023-02-06T01:30:15.693Z,101026.70
2023-02-06T01:32:43.377Z,101024.88
2023-02-06T01:35:10.464Z,101022.92
2023-02-06T01:37:37.517Z,101016.98
2023-02-06T01:40:05.658Z,101015.96
2023-02-06T01:42:36.602Z,101016.83
2023-02-06T01:45:25.253Z,101021.09
2023-02-06T01:47:54.838Z,101021.46
2023-02-06T01:50:21.464Z,101021.23
2023-02-06T01:52:48.162Z,101023.30
2023-02-06T01:55:14.818Z,101029.08
2023-02-06T01:57:42.486Z,101030.32
2023-02-06T02:00:10.057Z,101033.09
2023-02-06T02:02:42.669Z,101033.39
2023-02-06T02:05:09.433Z,101036.80
2023-02-06T02:07:37.755Z,101037.77
2023-02-06T02:10:07.838Z,101035.99
2023-02-06T02:12:34.838Z,101038.17
2023-02-06T02:15:05.200Z,101039.77
2023-02-06T02:17:47.089Z,101043.90
2023-02-06T02:20:52.465Z,101052.84
2023-02-06T02:23:40.120Z,101046.70
2023-02-06T02:26:25.962Z,101051.02
2023-02-06T02:29:08.059Z,101049.54
2023-02-06T02:31:45.490Z,101054.96
2023-02-06T02:34:17.416Z,101056.14
2023-02-06T02:37:19.996Z,101058.80
2023-02-06T02:39:55.543Z,101056.37
2023-02-06T02:42:22.247Z,101061.33
2023-02-06T02:44:59.942Z,101065.18
2023-02-06T02:47:29.550Z,101063.34
2023-02-06T02:49:59.645Z,101061.00
2023-02-06T02:52:26.724Z,101063.81
2023-02-06T02:54:53.773Z,101064.90
2023-02-06T02:57:26.861Z,101064.86
2023-02-06T02:59:53.915Z,101066.18
2023-02-06T03:02:23.159Z,101064.61
2023-02-06T03:04:55.539Z,101061.30
2023-02-06T03:07:38.702Z,101071.20
2023-02-06T03:10:22.331Z,101067.73
2023-02-06T03:12:56.000Z,101072.51
2023-02-06T03:15:41.340Z,101072.38
2023-02-06T03:18:14.617Z,101076.28
2023-02-06T03:20:44.144Z,101076.78
2023-02-06T03:23:19.885Z,101073.71
2023-02-06T03:25:47.492Z,101077.96
2023-02-06T03:28:20.405Z,101074.41
2023-02-06T03:30:48.572Z,101076.63
2023-02-06T03:33:17.094Z,101081.31
2023-02-06T03:35:44.094Z,101085.93
2023-02-06T03:38:10.832Z,101089.14
2023-02-06T03:40:38.269Z,101090.63
2023-02-06T03:43:05.891Z,101089.17
2023-02-06T03:45:42.361Z,101085.95
2023-02-06T03:48:16.259Z,101089.80
2023-02-06T03:50:43.606Z,101092.52
2023-02-06T03:53:11.004Z,101090.11
2023-02-06T03:55:38.257Z,101092.55
2023-02-06T03:58:08.358Z,101092.67
2023-02-06T04:00:35.939Z,101091.98
2023-02-06T04:03:03.010Z,101095.20
2023-02-06T04:05:30.039Z,101093.17
2023-02-06T04:07:57.276Z,101091.39
2023-02-06T04:10:26.162Z,101094.53
2023-02-06T04:12:53.503Z,101094.90
2023-02-06T04:15:20.969Z,101092.21
2023-02-06T04:17:59.348Z,101099.14
2023-02-06T04:20:28.499Z,101099.64
2023-02-06T04:22:56.015Z,101099.02
2023-02-06T04:25:22.692Z,101106.23
2023-02-06T04:27:49.552Z,101102.66
2023-02-06T04:30:17.600Z,101109.34
2023-02-06T04:32:44.597Z,101115.85
2023-02-06T04:35:11.328Z,101112.55
2023-02-06T04:37:39.002Z,101113.05
2023-02-06T04:40:06.799Z,101115.20
2023-02-06T04:42:33.624Z,101117.34
2023-02-06T04:45:00.381Z,101116.31
2023-02-06T04:47:27.089Z,101119.72
2023-02-06T04:49:53.920Z,101117.83
2023-02-06T04:52:20.969Z,101119.68
2023-02-06T04:54:47.816Z,101122.09
2023-02-06T04:57:14.765Z,101123.98
2023-02-06T04:59:41.782Z,101123.83
2023-02-06T05:02:08.519Z,101122.55
2023-02-06T05:04:35.786Z,101122.23
2023-02-06T05:07:05.354Z,101120.89
2023-02-06T05:09:32.886Z,101123.33
2023-02-06T05:11:59.897Z,101126.55
2023-02-06T05:14:26.718Z,101130.08
2023-02-06T05:16:56.631Z,101126.56
2023-02-06T05:19:23.452Z,101128.02
2023-02-06T05:21:50.089Z,101130.21
2023-02-06T05:24:17.923Z,101130.64
2023-02-06T05:26:45.943Z,101133.92
2023-02-06T05:29:12.633Z,101129.59
2023-02-06T05:31:39.725Z,101133.58
2023-02-06T05:34:07.476Z,101131.86
2023-02-06T05:36:34.306Z,101135.57
2023-02-06T05:39:01.155Z,101136.86
2023-02-06T05:41:30.256Z,101140.55
2023-02-06T05:43:56.997Z,101138.75
2023-02-06T05:46:23.983Z,101133.81
2023-02-06T05:48:51.307Z,101137.48
2023-02-06T05:51:18.902Z,101139.58
2023-02-06T05:53:45.857Z,101144.23
2023-02-06T05:56:12.563Z,101141.77
2023-02-06T05:58:39.326Z,101135.45
2023-02-06T06:01:06.266Z,101138.60
2023-02-06T06:03:33.982Z,101141.36
2023-02-06T06:06:00.891Z,101142.39
2023-02-06T06:08:28.010Z,101142.40
2023-02-06T06:10:54.760Z,101139.29
2023-02-06T06:13:21.471Z,101139.52
2023-02-06T06:15:51.177Z,101136.36
2023-02-06T06:18:19.631Z,101140.88
2023-02-06T06:20:47.015Z,101131.45
2023-02-06T06:23:15.727Z,101131.28
2023-02-06T06:25:42.538Z,101131.90
2023-02-06T06:28:10.300Z,101134.59
2023-02-06T06:30:38.037Z,101135.30
2023-02-06T06:33:05.049Z,101137.77
2023-02-06T06:35:32.096Z,101141.64
2023-02-06T06:37:59.460Z,101144.36
2023-02-06T06:40:26.188Z,101148.21
2023-02-06T06:42:53.462Z,101151.83
2023-02-06T06:45:20.294Z,101148.70
2023-02-06T06:47:47.002Z,101151.75
2023-02-06T06:50:14.533Z,101151.20
2023-02-06T06:52:41.764Z,101149.50
2023-02-06T06:55:08.714Z,101152.40
2023-02-06T06:57:35.848Z,101160.29
2023-02-06T07:00:03.703Z,101156.69
2023-02-06T07:02:31.087Z,101156.80
2023-02-06T10:34:34.076Z,101183.85
2023-02-06T10:37:09.939Z,101181.48
2023-02-06T10:39:37.245Z,101175.39
2023-02-06T10:42:16.573Z,101181.20
2023-02-06T10:45:19.567Z,101176.30
2023-02-06T10:47:56.799Z,101173.35
2023-02-06T10:50:23.667Z,101164.36
2023-02-06T10:52:54.434Z,101164.47
2023-02-06T10:55:57.085Z,101164.27
2023-02-06T10:58:41.133Z,101159.53
2023-02-06T11:01:23.920Z,101161.13
2023-02-06T11:03:59.422Z,101161.63
2023-02-06T11:06:26.760Z,101157.77
2023-02-06T11:08:54.499Z,101161.42
2023-02-06T11:11:23.304Z,101155.81
2023-02-06T11:13:56.815Z,101161.39
2023-02-06T11:16:26.048Z,101160.66
2023-02-06T11:18:54.693Z,101159.50
2023-02-06T11:21:40.896Z,101158.74
2023-02-06T11:24:12.046Z,101161.45
2023-02-06T11:26:46.886Z,101165.87
2023-02-06T11:29:19.146Z,101163.29
2023-02-06T11:31:54.024Z,101159.98
2023-02-06T11:34:42.430Z,101165.08
2023-02-06T11:37:39.785Z,101158.48
2023-02-06T11:40:28.076Z,101155.83
2023-02-06T11:43:36.858Z,101160.96
2023-02-06T11:46:11.173Z,101167.89
2023-02-06T11:48:39.815Z,101162.95
2023-02-06T11:51:07.225Z,101157.26
2023-02-06T11:53:35.084Z,101156.48
2023-02-06T11:56:14.652Z,101153.98
2023-02-06T11:58:41.585Z,101152.68
2023-02-06T12:01:17.311Z,101152.88
2023-02-06T12:03:51.232Z,101150.19
2023-02-06T12:06:30.332Z,101152.90
2023-02-06T12:08:59.088Z,101151.83
2023-02-06T12:11:41.271Z,101146.56
2023-02-06T12:14:19.829Z,101138.08
2023-02-06T12:16:48.618Z,101141.84
2023-02-06T12:19:22.637Z,101134.52
2023-02-06T12:21:54.686Z,101135.15
2023-02-06T12:24:34.605Z,101138.95
2023-02-06T12:27:11.112Z,101130.41
2023-02-06T12:29:43.886Z,101135.48
2023-02-06T12:32:18.095Z,101144.33
2023-02-06T12:34:55.776Z,101148.23
2023-02-06T12:37:26.387Z,101152.13
2023-02-06T12:39:54.155Z,101153.52
2023-02-06T12:42:36.309Z,101152.29
2023-02-06T12:45:17.255Z,101148.81
2023-02-06T12:48:20.200Z,101140.20
2023-02-06T12:51:12.492Z,101143.50
2023-02-06T12:53:46.724Z,101133.54
2023-02-06T12:56:22.618Z,101136.86
2023-02-06T12:59:09.296Z,101133.70
2023-02-06T13:01:48.628Z,101132.31
2023-02-06T13:04:20.170Z,101129.13
2023-02-06T13:07:17.121Z,101128.11
2023-02-06T13:10:08.653Z,101124.33
2023-02-06T13:12:36.534Z,101126.41
2023-02-06T13:15:07.611Z,101133.65
2023-02-06T13:17:36.999Z,101134.86
2023-02-06T13:20:04.883Z,101129.99
2023-02-06T13:22:45.567Z,101122.98
2023-02-06T13:25:28.182Z,101128.89
2023-02-06T13:28:00.417Z,101128.90
2023-02-06T13:30:30.769Z,101129.55
2023-02-06T13:33:22.060Z,101133.90
2023-02-06T13:36:03.528Z,101136.83
2023-02-06T13:38:34.295Z,101140.19
2023-02-06T14:56:31.601Z,101178.79
2023-02-06T14:59:18.959Z,101178.61
2023-02-06T15:01:50.115Z,101181.02
2023-02-06T15:04:23.600Z,101184.59
2023-02-06T15:06:54.545Z,101186.91
2023-02-06T15:09:30.244Z,101189.88
2023-02-06T15:12:26.807Z,101191.55
2023-02-06T15:14:55.969Z,101194.61
2023-02-06T15:17:26.638Z,101192.83
2023-02-06T15:20:25.259Z,101191.98
2023-02-06T15:23:04.971Z,101199.35
2023-02-06T15:25:42.250Z,101200.36
2023-02-06T15:28:16.701Z,101205.70
2023-02-06T15:30:45.185Z,101209.09
2023-02-06T15:33:18.194Z,101214.42
2023-02-06T15:35:50.280Z,101219.58
2023-02-06T15:38:19.386Z,101222.53
2023-02-06T15:41:06.817Z,101223.84
2023-02-06T15:43:35.110Z,101229.88
2023-02-06T15:46:04.998Z,101226.67
2023-02-06T15:48:43.840Z,101225.05
2023-02-06T15:51:38.288Z,101227.77
2023-02-06T15:54:18.051Z,101228.10
2023-02-06T15:56:56.926Z,101222.75
2023-02-06T15:59:26.140Z,101224.59
2023-02-06T16:01:55.716Z,101217.77
2023-02-06T16:04:24.804Z,101227.95
2023-02-06T19:27:34.092Z,101229.25
2023-02-06T19:30:02.806Z,101228.71
2023-02-06T19:32:32.354Z,101230.33
2023-02-06T19:35:01.057Z,101231.66
2023-02-06T19:37:29.731Z,101227.86
2023-02-06T19:40:00.080Z,101231.85
2023-02-06T19:42:29.821Z,101231.65
2023-02-06T19:45:00.162Z,101230.52
2023-02-06T19:47:28.447Z,101226.77
2023-02-06T19:49:59.348Z,101225.93
2023-02-06T19:52:29.181Z,101223.77
2023-02-06T19:54:57.448Z,101217.99
2023-02-06T19:57:26.300Z,101209.45
2023-02-06T19:59:54.503Z,101210.17
2023-02-06T20:02:28.477Z,101215.28
2023-02-06T20:04:57.223Z,101214.36
2023-02-06T20:07:26.996Z,101218.42
2023-02-06T20:09:57.343Z,101218.55
2023-02-06T20:12:27.079Z,101219.95
2023-02-06T20:14:56.019Z,101218.91
2023-02-06T20:17:25.395Z,101221.20
2023-02-06T20:19:53.697Z,101215.67
2023-02-06T20:22:22.340Z,101214.20
2023-02-06T20:24:50.645Z,101208.78
2023-02-06T20:27:19.070Z,101208.92
2023-02-06T20:29:47.390Z,101209.30
2023-02-06T20:32:16.790Z,101212.83
2023-02-06T20:34:46.350Z,101213.27
2023-02-06T20:37:14.895Z,101211.81
2023-02-06T20:39:44.329Z,101211.78
2023-02-06T20:42:13.057Z,101208.35
2023-02-06T20:44:41.385Z,101210.16
2023-02-06T20:47:09.478Z,101204.27
2023-02-06T20:49:37.540Z,101205.44
2023-02-06T20:52:06.542Z,101200.95
2023-02-06T20:54:34.944Z,101201.34
2023-02-06T20:57:03.671Z,101203.27
2023-02-06T20:59:32.039Z,101200.19
2023-02-06T21:02:00.529Z,101198.08
2023-02-06T21:04:29.230Z,101202.33
2023-02-06T21:06:57.836Z,101200.85
2023-02-06T21:09:26.756Z,101204.05
2023-02-06T21:11:55.061Z,101204.70
2023-02-06T21:14:25.490Z,101200.69
2023-02-06T21:16:54.557Z,101206.08
2023-02-06T21:19:23.247Z,101206.14
2023-02-06T21:21:51.832Z,101205.45
2023-02-06T21:24:19.948Z,101206.21
2023-02-06T21:26:48.401Z,101203.77
2023-02-06T21:29:16.576Z,101206.42
2023-02-06T21:31:45.125Z,101208.84
2023-02-06T21:34:16.520Z,101208.48
2023-02-06T21:36:44.993Z,101206.73
2023-02-06T21:39:18.155Z,101203.06
2023-02-06T21:41:46.814Z,101201.74
2023-02-06T21:44:15.044Z,101199.65
2023-02-06T21:46:43.270Z,101195.83
2023-02-06T21:49:13.005Z,101191.34
2023-02-06T21:51:41.222Z,101186.92
2023-02-06T21:54:09.548Z,101188.80
2023-02-06T21:56:40.570Z,101183.30
2023-02-06T21:59:09.972Z,101181.86
2023-02-06T22:01:40.671Z,101181.30
2023-02-06T22:04:12.958Z,101180.18
2023-02-06T22:06:41.952Z,101174.06
2023-02-06T22:09:15.345Z,101178.36
2023-02-06T22:11:45.306Z,101173.03
2023-02-06T22:14:16.470Z,101172.90
2023-02-06T22:16:48.728Z,101168.55
2023-02-06T22:19:18.012Z,101171.05
2023-02-06T22:21:49.014Z,101170.60
2023-02-06T22:24:18.246Z,101170.33
2023-02-06T22:26:46.597Z,101169.11
2023-02-06T22:29:16.078Z,101171.09
2023-02-06T22:31:44.902Z,101170.20
2023-02-06T22:34:18.907Z,101164.37
2023-02-06T22:36:51.264Z,101159.68
2023-02-06T22:39:20.087Z,101156.04
2023-02-06T22:41:49.237Z,101156.13
2023-02-06T22:44:19.176Z,101157.57
2023-02-06T22:46:52.583Z,101156.55
2023-02-06T22:49:21.497Z,101154.05
2023-02-06T22:51:51.099Z,101154.47
2023-02-06T22:54:19.184Z,101152.71
2023-02-06T22:56:47.316Z,101155.10
2023-02-06T22:59:23.926Z,101156.02
2023-02-06T23:01:58.098Z,101153.29
2023-02-06T23:04:30.644Z,101151.84
2023-02-06T23:06:59.010Z,101156.39
2023-02-06T23:09:30.104Z,101155.43
2023-02-06T23:11:59.008Z,101156.23
2023-02-06T23:14:28.736Z,101157.98
2023-02-06T23:17:00.280Z,101149.23
2023-02-06T23:19:29.204Z,101146.36
2023-02-06T23:21:57.469Z,101146.77
2023-02-06T23:24:25.945Z,101149.41
2023-02-06T23:26:54.532Z,101148.00
2023-02-06T23:29:23.328Z,101143.66
2023-02-06T23:31:51.870Z,101137.42
2023-02-06T23:34:23.831Z,101140.20
2023-02-06T23:36:56.147Z,101142.27
2023-02-06T23:39:24.543Z,101144.75
2023-02-06T23:41:52.943Z,101146.60
2023-02-06T23:44:21.009Z,101146.73
2023-02-06T23:46:49.327Z,101148.30
2023-02-06T23:49:17.454Z,101147.59
2023-02-06T23:51:47.237Z,101144.53
2023-02-06T23:54:15.753Z,101142.98
2023-02-06T23:56:46.565Z,101143.73
2023-02-06T23:59:14.861Z,101140.96
